sensor_id;sensor_type;location;lat;lon;timestamp;P1;P2;P0
62981;PMS5003;49075;53.988;27.678;2023-07-31T00:00:13;32.4;30.4;22.2
62981;PMS5003;49075;53.988;27.678;2023-07-31T00:05:27;39.2;33.6;24.4
62981;PMS5003;49075;53.988;27.678;2023-07-31T00:10:35;36.4;33.6;23.2
62981;PMS5003;49075;53.988;27.678;2023-07-31T00:15:21;37.8;33.6;23.4
62981;PMS5003;49075;53.988;27.678;2023-07-31T00:20:25;41.8;36.2;26.2
62981;PMS5003;49075;53.988;27.678;2023-07-31T00:25:13;38.6;34.4;25.4
62981;PMS5003;49075;53.988;27.678;2023-07-31T00:30:27;35.4;32.6;23.2
62981;PMS5003;49075;53.988;27.678;2023-07-31T00:35:13;45.6;39;27.4
62981;PMS5003;49075;53.988;27.678;2023-07-31T00:40:41;36.5;33;24
62981;PMS5003;49075;53.988;27.678;2023-07-31T00:45:13;35.8;32.8;22.8
62981;PMS5003;49075;53.988;27.678;2023-07-31T00:50:39;38.6;33.2;24.6
62981;PMS5003;49075;53.988;27.678;2023-07-31T00:55:25;42.8;37;25.6
62981;PMS5003;49075;53.988;27.678;2023-07-31T01:00:41;46.2;39.2;27.6
62981;PMS5003;49075;53.988;27.678;2023-07-31T01:05:49;38;33.8;25
62981;PMS5003;49075;53.988;27.678;2023-07-31T01:10:41;39.3;34.5;24
62981;PMS5003;49075;53.988;27.678;2023-07-31T01:15:35;36.8;33;23.8
62981;PMS5003;49075;53.988;27.678;2023-07-31T01:20:35;40.2;34.2;24.4
62981;PMS5003;49075;53.988;27.678;2023-07-31T01:25:30;42;37;26.5
62981;PMS5003;49075;53.988;27.678;2023-07-31T01:30:33;43;36.8;25.8
62981;PMS5003;49075;53.988;27.678;2023-07-31T01:35:42;34;30.8;21.8
62981;PMS5003;49075;53.988;27.678;2023-07-31T01:40:27;40.8;36;25.4
62981;PMS5003;49075;53.988;27.678;2023-07-31T01:45:27;36.8;33.4;24.8
62981;PMS5003;49075;53.988;27.678;2023-07-31T01:50:21;36.6;33.4;23.4
62981;PMS5003;49075;53.988;27.678;2023-07-31T01:55:13;37.4;33.6;25.2
62981;PMS5003;49075;53.988;27.678;2023-07-31T02:00:25;43;37;25.4
62981;PMS5003;49075;53.988;27.678;2023-07-31T02:05:13;37;33.2;24.4
62981;PMS5003;49075;53.988;27.678;2023-07-31T02:10:35;53;44.5;29.8
62981;PMS5003;49075;53.988;27.678;2023-07-31T02:15:27;47.2;40;27.8
62981;PMS5003;49075;53.988;27.678;2023-07-31T02:20:27;44.6;38.2;26.8
62981;PMS5003;49075;53.988;27.678;2023-07-31T02:25:33;35;32.6;23.8
62981;PMS5003;49075;53.988;27.678;2023-07-31T02:30:33;39;35;24.8
62981;PMS5003;49075;53.988;27.678;2023-07-31T02:35:25;38.4;34.4;24.6
62981;PMS5003;49075;53.988;27.678;2023-07-31T02:40:27;35.2;31.8;22.8
62981;PMS5003;49075;53.988;27.678;2023-07-31T02:45:27;37.2;33.8;24.4
62981;PMS5003;49075;53.988;27.678;2023-07-31T02:50:13;35;32.2;23
62981;PMS5003;49075;53.988;27.678;2023-07-31T02:55:13;37.2;33.2;23.4
62981;PMS5003;49075;53.988;27.678;2023-07-31T03:00:21;36.2;33;23.6
62981;PMS5003;49075;53.988;27.678;2023-07-31T03:05:13;38;34.4;25.2
62981;PMS5003;49075;53.988;27.678;2023-07-31T03:10:13;42.8;37.5;26.3
62981;PMS5003;49075;53.988;27.678;2023-07-31T03:15:27;38;33.8;23
62981;PMS5003;49075;53.988;27.678;2023-07-31T03:20:41;43.2;36.4;25.4
62981;PMS5003;49075;53.988;27.678;2023-07-31T03:25:27;46;39.4;27.4
62981;PMS5003;49075;53.988;27.678;2023-07-31T03:30:35;58.6;48.4;32.8
62981;PMS5003;49075;53.988;27.678;2023-07-31T03:35:13;42.8;37.2;25.4
62981;PMS5003;49075;53.988;27.678;2023-07-31T03:40:33;51.5;44.3;30
62981;PMS5003;49075;53.988;27.678;2023-07-31T03:45:21;82;73.4;48.8
62981;PMS5003;49075;53.988;27.678;2023-07-31T03:50:13;58.6;48;32
62981;PMS5003;49075;53.988;27.678;2023-07-31T03:55:13;59;47.6;31.8
62981;PMS5003;49075;53.988;27.678;2023-07-31T04:00:21;59;48.2;32.8
62981;PMS5003;49075;53.988;27.678;2023-07-31T04:05:21;51.8;43.6;29.4
62981;PMS5003;49075;53.988;27.678;2023-07-31T04:10:39;51.2;43;28.8
62981;PMS5003;49075;53.988;27.678;2023-07-31T04:15:41;49;41;27.6
62981;PMS5003;49075;53.988;27.678;2023-07-31T04:20:13;49.4;41.6;27.4
62981;PMS5003;49075;53.988;27.678;2023-07-31T04:25:35;51.2;42.4;28.6
62981;PMS5003;49075;53.988;27.678;2023-07-31T04:30:13;66.6;58.6;38.6
62981;PMS5003;49075;53.988;27.678;2023-07-31T04:35:21;57;47;31.4
62981;PMS5003;49075;53.988;27.678;2023-07-31T04:40:13;57.8;47;31.3
62981;PMS5003;49075;53.988;27.678;2023-07-31T04:45:21;57.4;46;31.2
62981;PMS5003;49075;53.988;27.678;2023-07-31T04:50:13;57;47;31.3
62981;PMS5003;49075;53.988;27.678;2023-07-31T04:55:27;57;46.8;31.3
